sensor_id;sensor_type;location;lat;lon;timestamp;pressure;altitude;pressure_sealevel;temperature;humidity
54736;BME280;40632;51.442;11.936;2022-08-21T00:00:27;100447.78;;;30.33;57.55
54736;BME280;40632;51.442;11.936;2022-08-21T00:02:57;100447.06;;;30.14;57.59
54736;BME280;40632;51.442;11.936;2022-08-21T00:05:25;100445.19;;;29.73;58.92
54736;BME280;40632;51.442;11.936;2022-08-21T00:07:51;100438.28;;;29.28;60.29
54736;BME280;40632;51.442;11.936;2022-08-21T00:10:17;100446.59;;;27.82;64.63
54736;BME280;40632;51.442;11.936;2022-08-21T00:12:44;100443.38;;;28.30;63.79
54736;BME280;40632;51.442;11.936;2022-08-21T00:15:14;100442.16;;;28.01;64.32
54736;BME280;40632;51.442;11.936;2022-08-21T00:17:40;100446.84;;;27.74;65.30
54736;BME280;40632;51.442;11.936;2022-08-21T00:20:11;100438.56;;;29.01;61.47
54736;BME280;40632;51.442;11.936;2022-08-21T00:22:38;100443.75;;;29.03;60.49
54736;BME280;40632;51.442;11.936;2022-08-21T00:25:06;100439.44;;;28.51;62.32
54736;BME280;40632;51.442;11.936;2022-08-21T00:27:32;100449.31;;;27.44;65.23
54736;BME280;40632;51.442;11.936;2022-08-21T00:29:57;100448.81;;;26.95;67.53
54736;BME280;40632;51.442;11.936;2022-08-21T00:32:25;100443.63;;;26.93;68.28
54736;BME280;40632;51.442;11.936;2022-08-21T00:34:51;100433.63;;;27.14;67.83
54736;BME280;40632;51.442;11.936;2022-08-21T00:37:20;100446.69;;;27.69;66.13
54736;BME280;40632;51.442;11.936;2022-08-21T00:39:46;100439.81;;;27.28;66.28
54736;BME280;40632;51.442;11.936;2022-08-21T00:42:11;100448.25;;;27.45;66.37
54736;BME280;40632;51.442;11.936;2022-08-21T00:44:37;100441.94;;;28.03;64.17
54736;BME280;40632;51.442;11.936;2022-08-21T00:47:03;100437.72;;;28.64;62.57
54736;BME280;40632;51.442;11.936;2022-08-21T00:49:28;100436.50;;;27.19;66.01
54736;BME280;40632;51.442;11.936;2022-08-21T00:51:57;100436.53;;;27.64;65.79
54736;BME280;40632;51.442;11.936;2022-08-21T00:54:30;100444.00;;;28.01;63.29
54736;BME280;40632;51.442;11.936;2022-08-21T00:56:59;100451.72;;;27.97;63.85
54736;BME280;40632;51.442;11.936;2022-08-21T00:59:26;100441.38;;;27.87;64.64
54736;BME280;40632;51.442;11.936;2022-08-21T01:01:53;100444.59;;;27.71;65.86
54736;BME280;40632;51.442;11.936;2022-08-21T01:04:19;100444.72;;;27.83;65.16
54736;BME280;40632;51.442;11.936;2022-08-21T01:06:45;100439.94;;;26.74;68.29
54736;BME280;40632;51.442;11.936;2022-08-21T01:09:11;100442.69;;;27.78;66.09
54736;BME280;40632;51.442;11.936;2022-08-21T01:11:40;100446.03;;;27.22;67.49
54736;BME280;40632;51.442;11.936;2022-08-21T01:14:06;100444.75;;;27.37;66.54
54736;BME280;40632;51.442;11.936;2022-08-21T01:16:32;100446.44;;;28.09;65.38
54736;BME280;40632;51.442;11.936;2022-08-21T01:18:58;100443.75;;;28.09;63.43
54736;BME280;40632;51.442;11.936;2022-08-21T01:21:26;100435.22;;;28.37;62.66
54736;BME280;40632;51.442;11.936;2022-08-21T01:23:53;100436.88;;;28.63;61.95
54736;BME280;40632;51.442;11.936;2022-08-21T01:26:23;100439.50;;;28.45;62.72
54736;BME280;40632;51.442;11.936;2022-08-21T01:28:51;100439.25;;;28.28;62.82
54736;BME280;40632;51.442;11.936;2022-08-21T01:31:20;100427.94;;;28.63;61.33
54736;BME280;40632;51.442;11.936;2022-08-21T01:33:47;100430.59;;;28.69;60.99
54736;BME280;40632;51.442;11.936;2022-08-21T01:36:13;100431.22;;;27.83;63.76
54736;BME280;40632;51.442;11.936;2022-08-21T01:38:41;100441.78;;;27.52;65.65
54736;BME280;40632;51.442;11.936;2022-08-21T01:41:07;100431.75;;;27.08;66.24
54736;BME280;40632;51.442;11.936;2022-08-21T01:43:33;100438.75;;;27.35;65.88
54736;BME280;40632;51.442;11.936;2022-08-21T01:45:58;100435.13;;;26.96;66.40
54736;BME280;40632;51.442;11.936;2022-08-21T01:48:24;100430.91;;;27.66;64.34
54736;BME280;40632;51.442;11.936;2022-08-21T01:50:50;100431.03;;;28.16;62.55
54736;BME280;40632;51.442;11.936;2022-08-21T01:53:15;100430.75;;;28.24;61.99
54736;BME280;40632;51.442;11.936;2022-08-21T01:55:44;100442.78;;;27.90;62.36
54736;BME280;40632;51.442;11.936;2022-08-21T01:58:09;100431.53;;;28.06;62.68
54736;BME280;40632;51.442;11.936;2022-08-21T02:00:35;100432.13;;;27.70;63.47
54736;BME280;40632;51.442;11.936;2022-08-21T02:03:00;100432.47;;;27.87;63.35
54736;BME280;40632;51.442;11.936;2022-08-21T02:05:26;100428.84;;;28.06;62.47
54736;BME280;40632;51.442;11.936;2022-08-21T02:07:53;100422.16;;;28.09;62.64
54736;BME280;40632;51.442;11.936;2022-08-21T02:10:22;100423.03;;;28.03;62.45
54736;BME280;40632;51.442;11.936;2022-08-21T02:12:53;100430.13;;;28.22;60.82
54736;BME280;40632;51.442;11.936;2022-08-21T02:15:19;100434.63;;;28.10;60.67
54736;BME280;40632;51.442;11.936;2022-08-21T02:17:47;100429.91;;;27.60;62.01
54736;BME280;40632;51.442;11.936;2022-08-21T02:20:17;100427.66;;;27.95;61.00
54736;BME280;40632;51.442;11.936;2022-08-21T02:22:43;100425.84;;;28.65;60.41
54736;BME280;40632;51.442;11.936;2022-08-21T02:25:08;100438.69;;;27.87;61.11
54736;BME280;40632;51.442;11.936;2022-08-21T02:27:38;100434.50;;;28.48;59.04
54736;BME280;40632;51.442;11.936;2022-08-21T02:30:08;100428.16;;;28.11;59.27
54736;BME280;40632;51.442;11.936;2022-08-21T02:32:34;100437.41;;;27.97;59.36
54736;BME280;40632;51.442;11.936;2022-08-21T02:35:00;100433.88;;;28.46;57.91
54736;BME280;40632;51.442;11.936;2022-08-21T02:37:26;100432.91;;;28.41;57.73
54736;BME280;40632;51.442;11.936;2022-08-21T02:39:51;100428.09;;;28.43;58.11
54736;BME280;40632;51.442;11.936;2022-08-21T02:42:17;100430.13;;;29.46;55.83
54736;BME280;40632;51.442;11.936;2022-08-21T02:44:42;100427.38;;;28.98;56.05
54736;BME280;40632;51.442;11.936;2022-08-21T02:47:11;100428.47;;;28.90;56.08
54736;BME280;40632;51.442;11.936;2022-08-21T02:49:36;100428.91;;;28.68;56.95
54736;BME280;40632;51.442;11.936;2022-08-21T02:52:02;100431.56;;;28.75;56.38
54736;BME280;40632;51.442;11.936;2022-08-21T02:54:28;100430.63;;;28.38;56.97
54736;BME280;40632;51.442;11.936;2022-08-21T02:56:53;100432.78;;;28.98;56.50
54736;BME280;40632;51.442;11.936;2022-08-21T02:59:19;100432.09;;;28.65;57.22
54736;BME280;40632;51.442;11.936;2022-08-21T03:01:45;100440.44;;;28.32;57.23
54736;BME280;40632;51.442;11.936;2022-08-21T03:04:13;100433.34;;;28.81;56.73
54736;BME280;40632;51.442;11.936;2022-08-21T03:06:38;100432.59;;;28.56;57.26
54736;BME280;40632;51.442;11.936;2022-08-21T03:09:04;100428.69;;;28.45;56.78
54736;BME280;40632;51.442;11.936;2022-08-21T03:11:30;100431.78;;;28.23;56.83
54736;BME280;40632;51.442;11.936;2022-08-21T03:13:55;100441.19;;;27.82;57.40
54736;BME280;40632;51.442;11.936;2022-08-21T03:16:21;100437.66;;;27.50;58.11
54736;BME280;40632;51.442;11.936;2022-08-21T03:18:47;100437.03;;;27.48;58.27
54736;BME280;40632;51.442;11.936;2022-08-21T03:21:15;100431.75;;;27.66;57.89
54736;BME280;40632;51.442;11.936;2022-08-21T03:23:41;100435.38;;;27.85;56.88
54736;BME280;40632;51.442;11.936;2022-08-21T03:26:06;100435.09;;;27.62;56.89
54736;BME280;40632;51.442;11.936;2022-08-21T03:28:32;100431.81;;;27.91;56.17
54736;BME280;40632;51.442;11.936;2022-08-21T03:30:58;100422.69;;;28.68;54.88
54736;BME280;40632;51.442;11.936;2022-08-21T03:33:24;100436.56;;;27.57;58.17
54736;BME280;40632;51.442;11.936;2022-08-21T03:35:57;100434.91;;;27.56;59.14
54736;BME280;40632;51.442;11.936;2022-08-21T03:38:30;100430.91;;;27.14;60.24
54736;BME280;40632;51.442;11.936;2022-08-21T03:40:56;100430.75;;;27.61;59.12
54736;BME280;40632;51.442;11.936;2022-08-21T03:43:22;100432.22;;;28.20;57.67
54736;BME280;40632;51.442;11.936;2022-08-21T03:45:47;100428.59;;;28.08;57.36
54736;BME280;40632;51.442;11.936;2022-08-21T03:48:13;100419.28;;;28.54;56.59
54736;BME280;40632;51.442;11.936;2022-08-21T03:50:41;100422.34;;;27.75;57.80
54736;BME280;40632;51.442;11.936;2022-08-21T03:53:07;100428.94;;;28.18;57.29
54736;BME280;40632;51.442;11.936;2022-08-21T03:55:36;100435.44;;;27.72;58.29
54736;BME280;40632;51.442;11.936;2022-08-21T03:58:01;100430.91;;;28.04;57.32
54736;BME280;40632;51.442;11.936;2022-08-21T04:00:27;100430.56;;;27.94;57.80
54736;BME280;40632;51.442;11.936;2022-08-21T04:02:53;100435.28;;;28.30;56.34
54736;BME280;40632;51.442;11.936;2022-08-21T04:05:20;100437.31;;;28.35;56.77
54736;BME280;40632;51.442;11.936;2022-08-21T04:07:45;100439.50;;;27.94;57.56
54736;BME280;40632;51.442;11.936;2022-08-21T04:10:11;100444.84;;;27.56;58.41
54736;BME280;40632;51.442;11.936;2022-08-21T04:12:39;100446.50;;;27.05;59.54
54736;BME280;40632;51.442;11.936;2022-08-21T04:15:05;100451.13;;;27.88;57.85
54736;BME280;40632;51.442;11.936;2022-08-21T04:17:31;100450.28;;;27.88;57.60
54736;BME280;40632;51.442;11.936;2022-08-21T04:19:56;100447.50;;;27.17;59.21
54736;BME280;40632;51.442;11.936;2022-08-21T04:22:22;100457.16;;;27.45;58.45
54736;BME280;40632;51.442;11.936;2022-08-21T04:24:47;100464.66;;;27.82;57.48
54736;BME280;40632;51.442;11.936;2022-08-21T04:27:13;100466.00;;;27.66;57.20
54736;BME280;40632;51.442;11.936;2022-08-21T04:29:41;100462.00;;;27.75;56.61
54736;BME280;40632;51.442;11.936;2022-08-21T04:32:07;100457.22;;;27.18;57.04
54736;BME280;40632;51.442;11.936;2022-08-21T04:34:33;100458.94;;;28.03;55.63
54736;BME280;40632;51.442;11.936;2022-08-21T04:36:58;100466.63;;;28.06;54.94
54736;BME280;40632;51.442;11.936;2022-08-21T04:39:24;100456.16;;;28.42;54.32
54736;BME280;40632;51.442;11.936;2022-08-21T04:41:49;100460.25;;;28.76;53.32
54736;BME280;40632;51.442;11.936;2022-08-21T04:44:15;100465.47;;;29.15;52.84
54736;BME280;40632;51.442;11.936;2022-08-21T04:46:43;100469.88;;;29.09;52.33
54736;BME280;40632;51.442;11.936;2022-08-21T04:49:09;100470.16;;;29.01;52.90
54736;BME280;40632;51.442;11.936;2022-08-21T04:51:36;100471.84;;;29.20;52.47
54736;BME280;40632;51.442;11.936;2022-08-21T04:54:07;100476.03;;;28.98;52.78
54736;BME280;40632;51.442;11.936;2022-08-21T04:56:36;100471.50;;;28.92;52.85
54736;BME280;40632;51.442;11.936;2022-08-21T04:59:05;100474.56;;;28.58;53.40
54736;BME280;40632;51.442;11.936;2022-08-21T05:01:34;100477.53;;;28.43;53.15
54736;BME280;40632;51.442;11.936;2022-08-21T05:04:06;100476.25;;;27.95;53.42
54736;BME280;40632;51.442;11.936;2022-08-21T05:06:35;100486.03;;;27.83;54.50
54736;BME280;40632;51.442;11.936;2022-08-21T05:09:02;100480.91;;;28.39;52.90
54736;BME280;40632;51.442;11.936;2022-08-21T05:11:29;100476.53;;;28.12;53.08
54736;BME280;40632;51.442;11.936;2022-08-21T05:13:55;100480.31;;;27.60;53.60
54736;BME280;40632;51.442;11.936;2022-08-21T05:16:21;100478.50;;;28.24;52.63
54736;BME280;40632;51.442;11.936;2022-08-21T05:18:46;100474.94;;;28.62;51.85
54736;BME280;40632;51.442;11.936;2022-08-21T05:21:14;100457.22;;;28.66;51.12
54736;BME280;40632;51.442;11.936;2022-08-21T05:23:40;100467.38;;;28.89;50.89
54736;BME280;40632;51.442;11.936;2022-08-21T05:26:06;100462.13;;;29.13;50.64
54736;BME280;40632;51.442;11.936;2022-08-21T05:28:31;100474.78;;;29.19;49.84
54736;BME280;40632;51.442;11.936;2022-08-21T05:30:57;100469.00;;;29.15;50.11
54736;BME280;40632;51.442;11.936;2022-08-21T05:33:23;100470.69;;;28.73;50.57
54736;BME280;40632;51.442;11.936;2022-08-21T05:35:50;100478.84;;;28.66;51.26
54736;BME280;40632;51.442;11.936;2022-08-21T05:38:19;100479.38;;;28.75;51.41
54736;BME280;40632;51.442;11.936;2022-08-21T05:40:45;100477.59;;;28.87;51.43
54736;BME280;40632;51.442;11.936;2022-08-21T05:43:11;100484.38;;;28.46;51.49
54736;BME280;40632;51.442;11.936;2022-08-21T05:45:36;100483.94;;;28.99;50.95
54736;BME280;40632;51.442;11.936;2022-08-21T05:48:06;100488.47;;;29.42;50.66
54736;BME280;40632;51.442;11.936;2022-08-21T05:50:32;100487.72;;;28.92;51.79
54736;BME280;40632;51.442;11.936;2022-08-21T05:52:57;100492.97;;;28.86;51.71
54736;BME280;40632;51.442;11.936;2022-08-21T05:55:26;100491.34;;;29.59;50.08
54736;BME280;40632;51.442;11.936;2022-08-21T05:57:51;100497.94;;;29.63;50.57
54736;BME280;40632;51.442;11.936;2022-08-21T06:00:17;100505.91;;;28.52;53.52
54736;BME280;40632;51.442;11.936;2022-08-21T06:02:42;100504.31;;;28.20;53.82
54736;BME280;40632;51.442;11.936;2022-08-21T06:05:08;100509.66;;;28.58;53.35
54736;BME280;40632;51.442;11.936;2022-08-21T06:07:34;100509.75;;;28.70;52.75
54736;BME280;40632;51.442;11.936;2022-08-21T06:09:59;100507.84;;;28.45;52.91
54736;BME280;40632;51.442;11.936;2022-08-21T06:12:28;100511.31;;;28.52;52.23
54736;BME280;40632;51.442;11.936;2022-08-21T06:14:53;100510.56;;;28.45;53.49
54736;BME280;40632;51.442;11.936;2022-08-21T06:17:19;100514.97;;;28.08;53.39
54736;BME280;40632;51.442;11.936;2022-08-21T06:19:44;100517.47;;;28.66;51.74
54736;BME280;40632;51.442;11.936;2022-08-21T06:22:10;100515.25;;;28.31;52.52
54736;BME280;40632;51.442;11.936;2022-08-21T06:24:36;100515.19;;;28.38;51.62
54736;BME280;40632;51.442;11.936;2022-08-21T06:27:04;100515.44;;;27.98;52.58
54736;BME280;40632;51.442;11.936;2022-08-21T06:29:33;100524.47;;;28.17;51.83
54736;BME280;40632;51.442;11.936;2022-08-21T06:31:59;100519.34;;;28.09;51.99
54736;BME280;40632;51.442;11.936;2022-08-21T06:34:24;100514.50;;;28.49;51.59
54736;BME280;40632;51.442;11.936;2022-08-21T06:36:50;100508.09;;;28.44;50.73
54736;BME280;40632;51.442;11.936;2022-08-21T06:39:15;100513.22;;;29.58;49.15
54736;BME280;40632;51.442;11.936;2022-08-21T06:41:41;100517.59;;;29.59;49.10
54736;BME280;40632;51.442;11.936;2022-08-21T06:44:06;100508.28;;;30.03;47.46
54736;BME280;40632;51.442;11.936;2022-08-21T06:46:35;100512.69;;;29.49;49.62
54736;BME280;40632;51.442;11.936;2022-08-21T06:49:01;100512.53;;;30.89;46.82
54736;BME280;40632;51.442;11.936;2022-08-21T06:51:27;100502.53;;;31.25;46.40
54736;BME280;40632;51.442;11.936;2022-08-21T06:53:54;100498.25;;;31.29;45.72
54736;BME280;40632;51.442;11.936;2022-08-21T06:56:20;100500.91;;;31.00;46.48
54736;BME280;40632;51.442;11.936;2022-08-21T06:58:46;100496.88;;;30.91;47.00
54736;BME280;40632;51.442;11.936;2022-08-21T07:01:12;100505.47;;;31.11;45.99
54736;BME280;40632;51.442;11.936;2022-08-21T07:03:42;100503.59;;;32.22;45.53
54736;BME280;40632;51.442;11.936;2022-08-21T07:06:10;100501.28;;;31.56;46.03
54736;BME280;40632;51.442;11.936;2022-08-21T07:08:37;100506.81;;;31.61;46.47
54736;BME280;40632;51.442;11.936;2022-08-21T07:11:08;100505.22;;;32.23;45.73
54736;BME280;40632;51.442;11.936;2022-08-21T07:13:34;100499.47;;;33.26;44.25
54736;BME280;40632;51.442;11.936;2022-08-21T07:16:00;100497.19;;;33.40;43.24
54736;BME280;40632;51.442;11.936;2022-08-21T07:18:26;100506.00;;;33.25;43.00
54736;BME280;40632;51.442;11.936;2022-08-21T07:20:54;100500.69;;;32.11;43.63
54736;BME280;40632;51.442;11.936;2022-08-21T07:23:23;100499.81;;;31.01;44.94
54736;BME280;40632;51.442;11.936;2022-08-21T07:25:50;100499.25;;;31.63;43.67
54736;BME280;40632;51.442;11.936;2022-08-21T07:28:16;100499.53;;;31.79;43.33
54736;BME280;40632;51.442;11.936;2022-08-21T07:30:42;100496.50;;;32.21;42.15
54736;BME280;40632;51.442;11.936;2022-08-21T07:33:07;100499.66;;;32.63;41.64
54736;BME280;40632;51.442;11.936;2022-08-21T07:35:33;100502.94;;;32.32;42.94
54736;BME280;40632;51.442;11.936;2022-08-21T07:38:01;100498.19;;;31.93;44.18
54736;BME280;40632;51.442;11.936;2022-08-21T07:40:27;100497.75;;;31.84;43.76
54736;BME280;40632;51.442;11.936;2022-08-21T07:42:53;100495.16;;;31.49;44.47
54736;BME280;40632;51.442;11.936;2022-08-21T07:45:21;100497.56;;;31.22;44.71
54736;BME280;40632;51.442;11.936;2022-08-21T07:47:47;100495.69;;;32.20;42.79
54736;BME280;40632;51.442;11.936;2022-08-21T07:50:13;100500.47;;;32.64;42.64
54736;BME280;40632;51.442;11.936;2022-08-21T07:52:39;100494.63;;;33.11;41.55
54736;BME280;40632;51.442;11.936;2022-08-21T07:55:09;100494.47;;;33.40;41.26
54736;BME280;40632;51.442;11.936;2022-08-21T07:57:35;100489.47;;;34.08;39.87
54736;BME280;40632;51.442;11.936;2022-08-21T08:00:02;100489.78;;;33.13;41.54
54736;BME280;40632;51.442;11.936;2022-08-21T08:02:29;100487.63;;;33.59;41.18
54736;BME280;40632;51.442;11.936;2022-08-21T08:04:58;100479.63;;;33.75;40.12
54736;BME280;40632;51.442;11.936;2022-08-21T08:07:24;100478.50;;;33.71;40.51
54736;BME280;40632;51.442;11.936;2022-08-21T08:09:49;100482.91;;;34.04;39.86
54736;BME280;40632;51.442;11.936;2022-08-21T08:12:18;100481.56;;;33.30;40.61
54736;BME280;40632;51.442;11.936;2022-08-21T08:14:43;100473.88;;;33.71;39.79
54736;BME280;40632;51.442;11.936;2022-08-21T08:17:09;100471.16;;;34.68;38.45
54736;BME280;40632;51.442;11.936;2022-08-21T08:19:34;100480.66;;;33.96;39.28
54736;BME280;40632;51.442;11.936;2022-08-21T08:22:00;100476.59;;;33.71;39.98
54736;BME280;40632;51.442;11.936;2022-08-21T08:24:26;100484.41;;;33.90;39.40
54736;BME280;40632;51.442;11.936;2022-08-21T08:26:51;100493.28;;;32.92;40.85
54736;BME280;40632;51.442;11.936;2022-08-21T08:29:20;100484.84;;;33.54;38.92
54736;BME280;40632;51.442;11.936;2022-08-21T08:31:45;100480.38;;;33.43;38.82
54736;BME280;40632;51.442;11.936;2022-08-21T08:34:11;100475.78;;;33.71;37.91
54736;BME280;40632;51.442;11.936;2022-08-21T08:36:36;100479.75;;;33.36;39.08
54736;BME280;40632;51.442;11.936;2022-08-21T08:39:04;100480.03;;;33.89;36.07
54736;BME280;40632;51.442;11.936;2022-08-21T08:41:29;100483.56;;;33.89;38.14
54736;BME280;40632;51.442;11.936;2022-08-21T08:44:00;100486.88;;;34.18;38.75
54736;BME280;40632;51.442;11.936;2022-08-21T08:46:37;100476.88;;;35.14;36.68
54736;BME280;40632;51.442;11.936;2022-08-21T08:49:08;100480.53;;;33.80;36.11
54736;BME280;40632;51.442;11.936;2022-08-21T08:51:40;100479.97;;;34.11;34.18
54736;BME280;40632;51.442;11.936;2022-08-21T08:54:09;100487.50;;;34.63;34.02
54736;BME280;40632;51.442;11.936;2022-08-21T08:56:37;100476.47;;;33.61;35.63
54736;BME280;40632;51.442;11.936;2022-08-21T08:59:08;100481.19;;;34.58;35.05
54736;BME280;40632;51.442;11.936;2022-08-21T09:01:39;100474.03;;;34.89;34.38
54736;BME280;40632;51.442;11.936;2022-08-21T09:04:05;100473.44;;;35.35;34.00
54736;BME280;40632;51.442;11.936;2022-08-21T09:06:43;100477.00;;;34.87;34.26
54736;BME280;40632;51.442;11.936;2022-08-21T09:09:22;100467.41;;;35.22;35.05
54736;BME280;40632;51.442;11.936;2022-08-21T09:11:58;100465.25;;;35.45;34.36
54736;BME280;40632;51.442;11.936;2022-08-21T09:14:44;100470.59;;;36.03;34.03
54736;BME280;40632;51.442;11.936;2022-08-21T09:17:23;100467.56;;;35.89;34.13
54736;BME280;40632;51.442;11.936;2022-08-21T09:20:03;100462.28;;;34.83;34.05
54736;BME280;40632;51.442;11.936;2022-08-21T09:22:51;100462.78;;;33.78;35.25
54736;BME280;40632;51.442;11.936;2022-08-21T09:25:23;100463.81;;;35.17;33.54
54736;BME280;40632;51.442;11.936;2022-08-21T09:27:49;100460.66;;;34.87;34.19
54736;BME280;40632;51.442;11.936;2022-08-21T09:30:15;100467.97;;;34.77;33.89
54736;BME280;40632;51.442;11.936;2022-08-21T09:32:44;100471.91;;;34.21;34.59
54736;BME280;40632;51.442;11.936;2022-08-21T09:35:12;100460.50;;;34.24;35.09
54736;BME280;40632;51.442;11.936;2022-08-21T09:37:50;100459.59;;;34.51;34.84
54736;BME280;40632;51.442;11.936;2022-08-21T09:40:26;100468.81;;;34.82;34.94
54736;BME280;40632;51.442;11.936;2022-08-21T09:42:57;100460.44;;;34.99;34.72
54736;BME280;40632;51.442;11.936;2022-08-21T09:45:23;100462.84;;;35.54;33.20
54736;BME280;40632;51.442;11.936;2022-08-21T09:47:51;100465.84;;;35.47;34.01
54736;BME280;40632;51.442;11.936;2022-08-21T09:50:19;100462.84;;;35.54;33.59
54736;BME280;40632;51.442;11.936;2022-08-21T09:52:48;100462.03;;;35.53;33.49
54736;BME280;40632;51.442;11.936;2022-08-21T09:55:18;100470.28;;;35.84;33.15
54736;BME280;40632;51.442;11.936;2022-08-21T09:57:45;100470.50;;;36.95;32.51
54736;BME280;40632;51.442;11.936;2022-08-21T10:00:18;100465.13;;;36.03;33.33
54736;BME280;40632;51.442;11.936;2022-08-21T10:02:44;100468.13;;;36.58;33.02
54736;BME280;40632;51.442;11.936;2022-08-21T10:05:17;100464.88;;;36.40;32.86
54736;BME280;40632;51.442;11.936;2022-08-21T10:07:43;100461.19;;;36.96;32.68
54736;BME280;40632;51.442;11.936;2022-08-21T10:10:14;100459.19;;;37.23;31.95
54736;BME280;40632;51.442;11.936;2022-08-21T10:12:49;100463.09;;;34.84;34.67
54736;BME280;40632;51.442;11.936;2022-08-21T10:15:20;100462.31;;;35.67;34.15
54736;BME280;40632;51.442;11.936;2022-08-21T10:17:57;100461.81;;;35.80;34.27
54736;BME280;40632;51.442;11.936;2022-08-21T10:20:36;100453.91;;;36.15;33.37
54736;BME280;40632;51.442;11.936;2022-08-21T10:23:12;100459.06;;;36.62;33.34
54736;BME280;40632;51.442;11.936;2022-08-21T10:25:47;100449.47;;;37.51;33.25
54736;BME280;40632;51.442;11.936;2022-08-21T10:28:22;100448.16;;;35.75;35.07
54736;BME280;40632;51.442;11.936;2022-08-21T10:30:57;100443.03;;;35.16;35.50
54736;BME280;40632;51.442;11.936;2022-08-21T10:33:33;100449.75;;;35.61;35.27
54736;BME280;40632;51.442;11.936;2022-08-21T10:36:13;100450.97;;;35.17;36.13
54736;BME280;40632;51.442;11.936;2022-08-21T10:38:54;100455.59;;;36.21;34.10
54736;BME280;40632;51.442;11.936;2022-08-21T10:41:30;100456.25;;;35.39;35.27
54736;BME280;40632;51.442;11.936;2022-08-21T10:44:08;100447.06;;;36.38;34.61
54736;BME280;40632;51.442;11.936;2022-08-21T10:46:49;100453.75;;;34.74;36.38
54736;BME280;40632;51.442;11.936;2022-08-21T10:49:22;100450.59;;;35.61;35.11
54736;BME280;40632;51.442;11.936;2022-08-21T10:51:58;100443.75;;;36.77;34.49
54736;BME280;40632;51.442;11.936;2022-08-21T10:54:33;100446.16;;;35.45;35.36
54736;BME280;40632;51.442;11.936;2022-08-21T10:57:05;100441.38;;;37.25;33.41
54736;BME280;40632;51.442;11.936;2022-08-21T10:59:36;100449.16;;;35.38;35.38
54736;BME280;40632;51.442;11.936;2022-08-21T11:02:13;100444.25;;;36.89;34.40
54736;BME280;40632;51.442;11.936;2022-08-21T11:04:51;100441.31;;;36.60;35.01
54736;BME280;40632;51.442;11.936;2022-08-21T11:07:26;100440.06;;;37.17;33.52
54736;BME280;40632;51.442;11.936;2022-08-21T11:09:55;100433.91;;;36.71;34.30
54736;BME280;40632;51.442;11.936;2022-08-21T11:12:25;100436.41;;;34.16;35.68
54736;BME280;40632;51.442;11.936;2022-08-21T11:14:58;100427.06;;;35.50;34.89
54736;BME280;40632;51.442;11.936;2022-08-21T11:17:32;100429.88;;;35.96;34.78
54736;BME280;40632;51.442;11.936;2022-08-21T11:20:03;100431.16;;;35.53;35.25
54736;BME280;40632;51.442;11.936;2022-08-21T11:22:39;100422.19;;;36.50;34.08
54736;BME280;40632;51.442;11.936;2022-08-21T11:25:10;100419.34;;;35.26;35.09
54736;BME280;40632;51.442;11.936;2022-08-21T11:27:42;100419.16;;;35.64;34.98
54736;BME280;40632;51.442;11.936;2022-08-21T11:30:10;100421.94;;;36.10;34.47
54736;BME280;40632;51.442;11.936;2022-08-21T11:32:58;100420.03;;;36.21;34.91
54736;BME280;40632;51.442;11.936;2022-08-21T11:35:33;100428.22;;;36.11;34.83
54736;BME280;40632;51.442;11.936;2022-08-21T11:38:22;100411.22;;;36.55;34.29
54736;BME280;40632;51.442;11.936;2022-08-21T11:41:03;100410.13;;;37.36;32.98
54736;BME280;40632;51.442;11.936;2022-08-21T11:43:37;100405.25;;;37.23;32.80
54736;BME280;40632;51.442;11.936;2022-08-21T11:46:12;100407.91;;;37.38;32.47
54736;BME280;40632;51.442;11.936;2022-08-21T11:48:43;100418.72;;;34.56;34.89
54736;BME280;40632;51.442;11.936;2022-08-21T11:51:15;100405.25;;;36.42;33.42
54736;BME280;40632;51.442;11.936;2022-08-21T11:53:50;100405.75;;;36.55;33.46
54736;BME280;40632;51.442;11.936;2022-08-21T11:56:19;100399.50;;;34.78;34.70
54736;BME280;40632;51.442;11.936;2022-08-21T11:58:49;100394.84;;;34.79;34.90
54736;BME280;40632;51.442;11.936;2022-08-21T12:01:19;100398.38;;;36.55;32.62
54736;BME280;40632;51.442;11.936;2022-08-21T12:03:53;100398.47;;;34.42;34.90
54736;BME280;40632;51.442;11.936;2022-08-21T12:06:29;100387.53;;;35.83;33.85
54736;BME280;40632;51.442;11.936;2022-08-21T12:09:03;100388.00;;;37.23;32.54
54736;BME280;40632;51.442;11.936;2022-08-21T12:11:29;100385.78;;;37.30;31.98
54736;BME280;40632;51.442;11.936;2022-08-21T12:13:58;100384.19;;;37.63;31.66
54736;BME280;40632;51.442;11.936;2022-08-21T12:16:34;100384.78;;;37.55;32.11
54736;BME280;40632;51.442;11.936;2022-08-21T12:19:05;100382.31;;;37.53;32.34
54736;BME280;40632;51.442;11.936;2022-08-21T12:21:32;100382.66;;;38.16;30.87
54736;BME280;40632;51.442;11.936;2022-08-21T12:24:16;100380.03;;;36.56;31.16
54736;BME280;40632;51.442;11.936;2022-08-21T12:26:49;100381.41;;;36.53;32.42
54736;BME280;40632;51.442;11.936;2022-08-21T12:29:22;100379.28;;;36.35;31.61
54736;BME280;40632;51.442;11.936;2022-08-21T12:31:54;100371.69;;;37.47;30.62
54736;BME280;40632;51.442;11.936;2022-08-21T12:34:23;100375.69;;;37.99;30.51
54736;BME280;40632;51.442;11.936;2022-08-21T12:36:54;100375.72;;;37.94;30.05
54736;BME280;40632;51.442;11.936;2022-08-21T12:39:27;100379.22;;;38.58;29.89
54736;BME280;40632;51.442;11.936;2022-08-21T12:41:58;100382.44;;;38.07;29.85
54736;BME280;40632;51.442;11.936;2022-08-21T12:44:33;100379.69;;;37.77;30.35
54736;BME280;40632;51.442;11.936;2022-08-21T12:47:02;100380.81;;;38.06;30.18